sensor_id;sensor_type;location;lat;lon;timestamp;P1;durP1;ratioP1;P2;durP2;ratioP2
12059;SDS011;6091;51.432;6.880;2022-07-12T00:02:04;0.90;;;0.80;;
12059;SDS011;6091;51.432;6.880;2022-07-12T00:04:32;0.75;;;0.70;;
12059;SDS011;6091;51.432;6.880;2022-07-12T00:06:59;1.10;;;1.02;;
12059;SDS011;6091;51.432;6.880;2022-07-12T00:09:26;0.90;;;0.90;;
12059;SDS011;6091;51.432;6.880;2022-07-12T00:11:53;0.90;;;0.90;;
12059;SDS011;6091;51.432;6.880;2022-07-12T00:14:21;0.85;;;0.85;;
12059;SDS011;6091;51.432;6.880;2022-07-12T00:16:48;1.00;;;0.90;;
12059;SDS011;6091;51.432;6.880;2022-07-12T00:19:15;0.70;;;0.70;;
12059;SDS011;6091;51.432;6.880;2022-07-12T00:21:42;0.88;;;0.88;;
12059;SDS011;6091;51.432;6.880;2022-07-12T00:24:09;0.90;;;0.90;;
12059;SDS011;6091;51.432;6.880;2022-07-12T00:26:37;0.80;;;0.80;;
12059;SDS011;6091;51.432;6.880;2022-07-12T00:29:04;0.80;;;0.80;;
12059;SDS011;6091;51.432;6.880;2022-07-12T00:31:31;0.80;;;0.80;;
12059;SDS011;6091;51.432;6.880;2022-07-12T00:33:59;0.93;;;0.93;;
12059;SDS011;6091;51.432;6.880;2022-07-12T00:36:26;0.90;;;0.90;;
12059;SDS011;6091;51.432;6.880;2022-07-12T00:38:53;0.85;;;0.82;;
12059;SDS011;6091;51.432;6.880;2022-07-12T00:41:21;0.93;;;0.80;;
12059;SDS011;6091;51.432;6.880;2022-07-12T00:43:48;0.68;;;0.68;;
12059;SDS011;6091;51.432;6.880;2022-07-12T00:46:15;0.70;;;0.70;;
12059;SDS011;6091;51.432;6.880;2022-07-12T00:48:49;0.82;;;0.82;;
12059;SDS011;6091;51.432;6.880;2022-07-12T00:51:20;0.77;;;0.77;;
12059;SDS011;6091;51.432;6.880;2022-07-12T00:53:47;0.73;;;0.73;;
12059;SDS011;6091;51.432;6.880;2022-07-12T00:56:17;0.82;;;0.80;;
12059;SDS011;6091;51.432;6.880;2022-07-12T00:58:44;0.98;;;0.90;;
12059;SDS011;6091;51.432;6.880;2022-07-12T01:01:11;0.70;;;0.70;;
12059;SDS011;6091;51.432;6.880;2022-07-12T01:03:39;0.82;;;0.82;;
12059;SDS011;6091;51.432;6.880;2022-07-12T01:06:08;0.80;;;0.80;;
12059;SDS011;6091;51.432;6.880;2022-07-12T01:08:36;0.70;;;0.70;;
12059;SDS011;6091;51.432;6.880;2022-07-12T01:11:04;1.00;;;0.90;;
12059;SDS011;6091;51.432;6.880;2022-07-12T01:13:31;0.85;;;0.85;;
12059;SDS011;6091;51.432;6.880;2022-07-12T01:15:59;0.80;;;0.80;;
12059;SDS011;6091;51.432;6.880;2022-07-12T01:18:27;0.90;;;0.90;;
12059;SDS011;6091;51.432;6.880;2022-07-12T01:20:54;0.80;;;0.80;;
12059;SDS011;6091;51.432;6.880;2022-07-12T01:23:25;0.85;;;0.85;;
12059;SDS011;6091;51.432;6.880;2022-07-12T01:25:52;0.73;;;0.73;;
12059;SDS011;6091;51.432;6.880;2022-07-12T01:28:26;1.05;;;0.90;;
12059;SDS011;6091;51.432;6.880;2022-07-12T01:30:53;1.08;;;0.98;;
12059;SDS011;6091;51.432;6.880;2022-07-12T01:33:20;0.80;;;0.80;;
12059;SDS011;6091;51.432;6.880;2022-07-12T01:35:47;1.48;;;0.75;;
12059;SDS011;6091;51.432;6.880;2022-07-12T01:38:15;0.80;;;0.80;;
12059;SDS011;6091;51.432;6.880;2022-07-12T01:40:42;0.75;;;0.75;;
12059;SDS011;6091;51.432;6.880;2022-07-12T01:43:10;0.70;;;0.70;;
12059;SDS011;6091;51.432;6.880;2022-07-12T01:45:37;0.95;;;0.90;;
12059;SDS011;6091;51.432;6.880;2022-07-12T01:48:04;0.60;;;0.60;;
12059;SDS011;6091;51.432;6.880;2022-07-12T01:50:31;0.80;;;0.80;;
12059;SDS011;6091;51.432;6.880;2022-07-12T01:52:59;0.90;;;0.90;;
12059;SDS011;6091;51.432;6.880;2022-07-12T01:55:27;0.77;;;0.77;;
12059;SDS011;6091;51.432;6.880;2022-07-12T01:57:57;0.60;;;0.60;;
12059;SDS011;6091;51.432;6.880;2022-07-12T02:00:24;0.70;;;0.70;;
12059;SDS011;6091;51.432;6.880;2022-07-12T02:02:53;0.88;;;0.88;;
12059;SDS011;6091;51.432;6.880;2022-07-12T02:05:21;1.48;;;0.70;;
12059;SDS011;6091;51.432;6.880;2022-07-12T02:07:48;0.73;;;0.73;;
12059;SDS011;6091;51.432;6.880;2022-07-12T02:10:15;0.77;;;0.77;;
12059;SDS011;6091;51.432;6.880;2022-07-12T02:12:42;1.00;;;0.90;;
12059;SDS011;6091;51.432;6.880;2022-07-12T02:15:10;0.70;;;0.70;;
12059;SDS011;6091;51.432;6.880;2022-07-12T02:17:37;0.82;;;0.80;;
12059;SDS011;6091;51.432;6.880;2022-07-12T02:20:04;0.80;;;0.80;;
12059;SDS011;6091;51.432;6.880;2022-07-12T02:22:32;0.70;;;0.70;;
12059;SDS011;6091;51.432;6.880;2022-07-12T02:24:59;0.77;;;0.77;;
12059;SDS011;6091;51.432;6.880;2022-07-12T02:27:26;0.70;;;0.70;;
12059;SDS011;6091;51.432;6.880;2022-07-12T02:29:53;0.70;;;0.70;;
12059;SDS011;6091;51.432;6.880;2022-07-12T02:32:20;0.80;;;0.80;;
12059;SDS011;6091;51.432;6.880;2022-07-12T02:34:47;0.90;;;0.90;;
12059;SDS011;6091;51.432;6.880;2022-07-12T02:37:14;0.80;;;0.80;;
12059;SDS011;6091;51.432;6.880;2022-07-12T02:39:41;0.90;;;0.90;;
12059;SDS011;6091;51.432;6.880;2022-07-12T02:42:08;0.63;;;0.63;;
12059;SDS011;6091;51.432;6.880;2022-07-12T02:44:35;0.80;;;0.80;;
12059;SDS011;6091;51.432;6.880;2022-07-12T02:47:02;0.60;;;0.60;;
12059;SDS011;6091;51.432;6.880;2022-07-12T02:49:29;0.80;;;0.80;;
12059;SDS011;6091;51.432;6.880;2022-07-12T02:51:56;0.60;;;0.60;;
12059;SDS011;6091;51.432;6.880;2022-07-12T02:54:23;1.10;;;0.80;;
12059;SDS011;6091;51.432;6.880;2022-07-12T02:56:50;0.85;;;0.85;;
12059;SDS011;6091;51.432;6.880;2022-07-12T02:59:17;0.82;;;0.82;;
12059;SDS011;6091;51.432;6.880;2022-07-12T03:01:44;0.80;;;0.80;;
12059;SDS011;6091;51.432;6.880;2022-07-12T03:04:11;0.80;;;0.80;;
12059;SDS011;6091;51.432;6.880;2022-07-12T03:06:38;0.75;;;0.75;;
12059;SDS011;6091;51.432;6.880;2022-07-12T03:09:05;0.60;;;0.60;;
12059;SDS011;6091;51.432;6.880;2022-07-12T03:11:32;1.25;;;0.82;;
12059;SDS011;6091;51.432;6.880;2022-07-12T03:13:59;0.77;;;0.77;;
12059;SDS011;6091;51.432;6.880;2022-07-12T03:16:27;0.80;;;0.80;;
12059;SDS011;6091;51.432;6.880;2022-07-12T03:18:54;1.33;;;0.60;;
12059;SDS011;6091;51.432;6.880;2022-07-12T03:21:21;0.82;;;0.80;;
12059;SDS011;6091;51.432;6.880;2022-07-12T03:23:48;0.63;;;0.63;;
12059;SDS011;6091;51.432;6.880;2022-07-12T03:26:15;0.90;;;0.90;;
12059;SDS011;6091;51.432;6.880;2022-07-12T03:28:42;0.80;;;0.80;;
12059;SDS011;6091;51.432;6.880;2022-07-12T03:31:09;0.90;;;0.90;;
12059;SDS011;6091;51.432;6.880;2022-07-12T03:33:36;0.80;;;0.80;;
12059;SDS011;6091;51.432;6.880;2022-07-12T03:36:03;0.88;;;0.88;;
12059;SDS011;6091;51.432;6.880;2022-07-12T03:38:32;1.02;;;0.90;;
12059;SDS011;6091;51.432;6.880;2022-07-12T03:41:01;0.80;;;0.80;;
12059;SDS011;6091;51.432;6.880;2022-07-12T03:43:28;0.95;;;0.95;;
12059;SDS011;6091;51.432;6.880;2022-07-12T03:45:58;1.05;;;0.90;;
12059;SDS011;6091;51.432;6.880;2022-07-12T03:48:25;1.00;;;0.90;;
12059;SDS011;6091;51.432;6.880;2022-07-12T03:50:52;1.35;;;1.00;;
12059;SDS011;6091;51.432;6.880;2022-07-12T03:53:19;1.10;;;1.00;;
12059;SDS011;6091;51.432;6.880;2022-07-12T03:55:46;0.70;;;0.70;;
12059;SDS011;6091;51.432;6.880;2022-07-12T03:58:13;0.90;;;0.90;;
12059;SDS011;6091;51.432;6.880;2022-07-12T04:00:40;0.88;;;0.88;;
12059;SDS011;6091;51.432;6.880;2022-07-12T04:03:09;1.00;;;1.00;;
12059;SDS011;6091;51.432;6.880;2022-07-12T04:05:37;0.80;;;0.80;;
12059;SDS011;6091;51.432;6.880;2022-07-12T04:08:04;1.33;;;0.90;;
12059;SDS011;6091;51.432;6.880;2022-07-12T04:10:32;0.80;;;0.80;;
12059;SDS011;6091;51.432;6.880;2022-07-12T04:12:59;1.25;;;0.80;;
12059;SDS011;6091;51.432;6.880;2022-07-12T04:15:26;0.90;;;0.90;;
12059;SDS011;6091;51.432;6.880;2022-07-12T04:17:53;0.82;;;0.82;;
12059;SDS011;6091;51.432;6.880;2022-07-12T04:20:20;0.85;;;0.85;;
12059;SDS011;6091;51.432;6.880;2022-07-12T04:22:47;1.13;;;1.00;;
12059;SDS011;6091;51.432;6.880;2022-07-12T04:25:15;0.93;;;0.93;;
12059;SDS011;6091;51.432;6.880;2022-07-12T04:27:42;1.08;;;1.08;;
12059;SDS011;6091;51.432;6.880;2022-07-12T04:30:09;0.90;;;0.90;;
12059;SDS011;6091;51.432;6.880;2022-07-12T04:32:36;0.80;;;0.80;;
12059;SDS011;6091;51.432;6.880;2022-07-12T04:35:03;0.75;;;0.75;;
12059;SDS011;6091;51.432;6.880;2022-07-12T04:37:30;1.00;;;1.00;;
12059;SDS011;6091;51.432;6.880;2022-07-12T04:39:57;0.80;;;0.80;;
12059;SDS011;6091;51.432;6.880;2022-07-12T04:42:24;0.90;;;0.90;;
12059;SDS011;6091;51.432;6.880;2022-07-12T04:44:51;0.80;;;0.80;;
12059;SDS011;6091;51.432;6.880;2022-07-12T04:47:19;0.90;;;0.88;;
12059;SDS011;6091;51.432;6.880;2022-07-12T04:49:46;1.10;;;1.00;;
12059;SDS011;6091;51.432;6.880;2022-07-12T04:52:13;0.85;;;0.85;;
12059;SDS011;6091;51.432;6.880;2022-07-12T04:54:40;1.10;;;1.00;;
12059;SDS011;6091;51.432;6.880;2022-07-12T04:57:07;0.90;;;0.90;;
12059;SDS011;6091;51.432;6.880;2022-07-12T04:59:34;0.80;;;0.80;;
12059;SDS011;6091;51.432;6.880;2022-07-12T05:02:01;1.05;;;0.98;;
12059;SDS011;6091;51.432;6.880;2022-07-12T05:04:32;0.80;;;0.80;;
12059;SDS011;6091;51.432;6.880;2022-07-12T05:07:00;0.88;;;0.85;;
12059;SDS011;6091;51.432;6.880;2022-07-12T05:09:27;1.50;;;1.20;;
12059;SDS011;6091;51.432;6.880;2022-07-12T05:11:54;0.98;;;0.98;;
12059;SDS011;6091;51.432;6.880;2022-07-12T05:14:21;0.90;;;0.90;;
12059;SDS011;6091;51.432;6.880;2022-07-12T05:16:48;1.35;;;0.98;;
12059;SDS011;6091;51.432;6.880;2022-07-12T05:19:15;1.00;;;0.90;;
12059;SDS011;6091;51.432;6.880;2022-07-12T05:21:42;0.80;;;0.80;;
12059;SDS011;6091;51.432;6.880;2022-07-12T05:24:09;0.88;;;0.88;;
12059;SDS011;6091;51.432;6.880;2022-07-12T05:26:36;1.48;;;0.82;;
12059;SDS011;6091;51.432;6.880;2022-07-12T05:29:03;0.80;;;0.80;;
12059;SDS011;6091;51.432;6.880;2022-07-12T05:31:30;1.88;;;0.95;;
12059;SDS011;6091;51.432;6.880;2022-07-12T05:33:58;0.90;;;0.90;;
12059;SDS011;6091;51.432;6.880;2022-07-12T05:36:25;2.67;;;1.08;;
12059;SDS011;6091;51.432;6.880;2022-07-12T05:38:52;1.42;;;1.33;;
12059;SDS011;6091;51.432;6.880;2022-07-12T05:41:20;1.15;;;1.05;;
12059;SDS011;6091;51.432;6.880;2022-07-12T05:43:47;2.33;;;1.00;;
12059;SDS011;6091;51.432;6.880;2022-07-12T05:46:13;2.15;;;0.90;;
12059;SDS011;6091;51.432;6.880;2022-07-12T05:48:40;1.20;;;1.10;;
12059;SDS011;6091;51.432;6.880;2022-07-12T05:51:07;1.38;;;1.27;;
12059;SDS011;6091;51.432;6.880;2022-07-12T05:53:53;3.35;;;1.20;;
12059;SDS011;6091;51.432;6.880;2022-07-12T05:56:20;1.58;;;1.27;;
12059;SDS011;6091;51.432;6.880;2022-07-12T05:58:47;1.65;;;1.55;;
12059;SDS011;6091;51.432;6.880;2022-07-12T06:01:14;1.70;;;1.42;;
12059;SDS011;6091;51.432;6.880;2022-07-12T06:03:41;1.42;;;1.33;;
12059;SDS011;6091;51.432;6.880;2022-07-12T06:06:08;3.50;;;1.88;;
12059;SDS011;6091;51.432;6.880;2022-07-12T06:08:35;1.65;;;1.55;;
12059;SDS011;6091;51.432;6.880;2022-07-12T06:11:02;1.67;;;1.58;;
12059;SDS011;6091;51.432;6.880;2022-07-12T06:13:29;2.00;;;1.80;;
12059;SDS011;6091;51.432;6.880;2022-07-12T06:15:56;2.05;;;1.45;;
12059;SDS011;6091;51.432;6.880;2022-07-12T06:18:23;1.80;;;1.63;;
12059;SDS011;6091;51.432;6.880;2022-07-12T06:20:51;1.70;;;1.60;;
12059;SDS011;6091;51.432;6.880;2022-07-12T06:23:18;3.03;;;1.48;;
12059;SDS011;6091;51.432;6.880;2022-07-12T06:25:45;2.05;;;1.50;;
12059;SDS011;6091;51.432;6.880;2022-07-12T06:28:18;1.55;;;1.45;;
12059;SDS011;6091;51.432;6.880;2022-07-12T06:30:45;2.58;;;1.65;;
12059;SDS011;6091;51.432;6.880;2022-07-12T06:33:13;2.67;;;1.80;;
12059;SDS011;6091;51.432;6.880;2022-07-12T06:35:40;4.40;;;2.10;;
12059;SDS011;6091;51.432;6.880;2022-07-12T06:38:07;2.13;;;1.70;;
12059;SDS011;6091;51.432;6.880;2022-07-12T06:40:34;2.10;;;1.90;;
12059;SDS011;6091;51.432;6.880;2022-07-12T06:43:01;1.67;;;1.58;;
12059;SDS011;6091;51.432;6.880;2022-07-12T06:45:28;2.08;;;1.88;;
12059;SDS011;6091;51.432;6.880;2022-07-12T06:47:55;2.60;;;1.70;;
12059;SDS011;6091;51.432;6.880;2022-07-12T06:50:22;2.42;;;1.58;;
12059;SDS011;6091;51.432;6.880;2022-07-12T06:52:49;1.75;;;1.60;;
12059;SDS011;6091;51.432;6.880;2022-07-12T06:55:16;1.98;;;1.75;;
12059;SDS011;6091;51.432;6.880;2022-07-12T06:57:43;3.38;;;1.92;;
12059;SDS011;6091;51.432;6.880;2022-07-12T07:00:10;2.15;;;1.77;;
12059;SDS011;6091;51.432;6.880;2022-07-12T07:02:38;4.13;;;1.75;;
12059;SDS011;6091;51.432;6.880;2022-07-12T07:05:06;1.90;;;1.60;;
12059;SDS011;6091;51.432;6.880;2022-07-12T07:07:34;1.73;;;1.42;;
12059;SDS011;6091;51.432;6.880;2022-07-12T07:10:01;2.42;;;2.03;;
12059;SDS011;6091;51.432;6.880;2022-07-12T07:12:28;3.17;;;1.95;;
12059;SDS011;6091;51.432;6.880;2022-07-12T07:14:56;2.47;;;1.80;;
12059;SDS011;6091;51.432;6.880;2022-07-12T07:17:22;2.15;;;2.03;;
12059;SDS011;6091;51.432;6.880;2022-07-12T07:19:50;2.17;;;1.75;;
12059;SDS011;6091;51.432;6.880;2022-07-12T07:22:17;2.22;;;1.77;;
12059;SDS011;6091;51.432;6.880;2022-07-12T07:24:45;2.47;;;1.67;;
12059;SDS011;6091;51.432;6.880;2022-07-12T07:27:12;4.10;;;1.63;;
12059;SDS011;6091;51.432;6.880;2022-07-12T07:29:39;3.47;;;1.90;;
12059;SDS011;6091;51.432;6.880;2022-07-12T07:32:25;2.03;;;1.77;;
12059;SDS011;6091;51.432;6.880;2022-07-12T07:34:52;2.67;;;1.73;;
12059;SDS011;6091;51.432;6.880;2022-07-12T07:37:19;2.10;;;1.70;;
12059;SDS011;6091;51.432;6.880;2022-07-12T07:39:46;2.65;;;1.90;;
12059;SDS011;6091;51.432;6.880;2022-07-12T07:42:13;2.38;;;1.90;;
12059;SDS011;6091;51.432;6.880;2022-07-12T07:44:39;2.47;;;1.70;;
12059;SDS011;6091;51.432;6.880;2022-07-12T07:47:27;2.60;;;2.40;;
12059;SDS011;6091;51.432;6.880;2022-07-12T07:49:57;2.70;;;2.03;;
12059;SDS011;6091;51.432;6.880;2022-07-12T07:52:24;3.75;;;1.83;;
12059;SDS011;6091;51.432;6.880;2022-07-12T07:54:51;2.70;;;1.92;;
12059;SDS011;6091;51.432;6.880;2022-07-12T07:57:18;2.45;;;2.17;;
12059;SDS011;6091;51.432;6.880;2022-07-12T07:59:44;5.60;;;1.80;;
12059;SDS011;6091;51.432;6.880;2022-07-12T08:02:11;3.97;;;1.77;;
12059;SDS011;6091;51.432;6.880;2022-07-12T08:04:41;3.03;;;1.83;;
12059;SDS011;6091;51.432;6.880;2022-07-12T08:07:11;3.78;;;2.05;;
12059;SDS011;6091;51.432;6.880;2022-07-12T08:09:58;1.98;;;1.70;;
12059;SDS011;6091;51.432;6.880;2022-07-12T08:12:25;3.38;;;2.33;;
12059;SDS011;6091;51.432;6.880;2022-07-12T08:14:52;2.95;;;2.45;;
12059;SDS011;6091;51.432;6.880;2022-07-12T08:17:19;3.13;;;1.90;;
12059;SDS011;6091;51.432;6.880;2022-07-12T08:19:46;3.38;;;2.25;;
12059;SDS011;6091;51.432;6.880;2022-07-12T08:22:13;4.97;;;2.05;;
12059;SDS011;6091;51.432;6.880;2022-07-12T08:24:40;2.05;;;1.85;;
12059;SDS011;6091;51.432;6.880;2022-07-12T08:27:07;2.85;;;2.33;;
12059;SDS011;6091;51.432;6.880;2022-07-12T08:29:34;5.05;;;2.70;;
12059;SDS011;6091;51.432;6.880;2022-07-12T08:32:01;3.88;;;2.08;;
12059;SDS011;6091;51.432;6.880;2022-07-12T08:34:29;3.72;;;2.33;;
12059;SDS011;6091;51.432;6.880;2022-07-12T08:36:56;2.40;;;2.00;;
12059;SDS011;6091;51.432;6.880;2022-07-12T08:39:23;2.97;;;2.28;;
12059;SDS011;6091;51.432;6.880;2022-07-12T08:41:50;4.15;;;1.90;;
12059;SDS011;6091;51.432;6.880;2022-07-12T08:44:17;2.25;;;2.05;;
12059;SDS011;6091;51.432;6.880;2022-07-12T08:46:44;2.35;;;2.00;;
12059;SDS011;6091;51.432;6.880;2022-07-12T08:49:13;2.38;;;2.10;;
12059;SDS011;6091;51.432;6.880;2022-07-12T08:51:40;2.28;;;1.80;;
12059;SDS011;6091;51.432;6.880;2022-07-12T08:54:09;2.85;;;1.60;;
12059;SDS011;6091;51.432;6.880;2022-07-12T08:56:39;1.92;;;1.60;;
12059;SDS011;6091;51.432;6.880;2022-07-12T08:59:15;1.88;;;1.65;;
12059;SDS011;6091;51.432;6.880;2022-07-12T09:01:50;1.67;;;1.58;;
12059;SDS011;6091;51.432;6.880;2022-07-12T09:04:24;5.20;;;1.77;;
12059;SDS011;6091;51.432;6.880;2022-07-12T09:06:53;1.70;;;1.60;;
12059;SDS011;6091;51.432;6.880;2022-07-12T09:09:30;1.70;;;1.33;;
12059;SDS011;6091;51.432;6.880;2022-07-12T09:12:04;1.63;;;1.50;;
12059;SDS011;6091;51.432;6.880;2022-07-12T09:14:31;1.80;;;1.70;;
12059;SDS011;6091;51.432;6.880;2022-07-12T09:17:00;2.15;;;1.13;;
12059;SDS011;6091;51.432;6.880;2022-07-12T09:19:27;2.08;;;1.50;;
12059;SDS011;6091;51.432;6.880;2022-07-12T09:21:54;3.92;;;1.90;;
12059;SDS011;6091;51.432;6.880;2022-07-12T09:24:25;2.00;;;1.50;;
12059;SDS011;6091;51.432;6.880;2022-07-12T09:26:59;1.70;;;1.60;;
12059;SDS011;6091;51.432;6.880;2022-07-12T09:29:29;1.60;;;1.50;;
12059;SDS011;6091;51.432;6.880;2022-07-12T09:31:59;2.20;;;1.55;;
12059;SDS011;6091;51.432;6.880;2022-07-12T09:34:58;1.63;;;1.40;;
12059;SDS011;6091;51.432;6.880;2022-07-12T09:37:44;1.30;;;1.20;;
12059;SDS011;6091;51.432;6.880;2022-07-12T09:40:13;1.40;;;1.30;;
12059;SDS011;6091;51.432;6.880;2022-07-12T09:42:40;1.40;;;1.30;;
12059;SDS011;6091;51.432;6.880;2022-07-12T09:45:08;1.73;;;1.60;;
12059;SDS011;6091;51.432;6.880;2022-07-12T09:47:37;2.65;;;1.23;;
12059;SDS011;6091;51.432;6.880;2022-07-12T09:50:04;1.35;;;1.25;;
12059;SDS011;6091;51.432;6.880;2022-07-12T09:52:36;1.58;;;1.48;;
12059;SDS011;6091;51.432;6.880;2022-07-12T09:55:06;1.60;;;1.50;;
12059;SDS011;6091;51.432;6.880;2022-07-12T09:57:43;1.58;;;1.38;;
12059;SDS011;6091;51.432;6.880;2022-07-12T10:00:13;1.48;;;1.38;;
12059;SDS011;6091;51.432;6.880;2022-07-12T10:02:40;1.60;;;1.10;;
12059;SDS011;6091;51.432;6.880;2022-07-12T10:05:08;3.75;;;1.42;;
12059;SDS011;6091;51.432;6.880;2022-07-12T10:07:38;1.60;;;1.50;;
12059;SDS011;6091;51.432;6.880;2022-07-12T10:10:08;2.28;;;1.30;;
12059;SDS011;6091;51.432;6.880;2022-07-12T10:12:37;2.08;;;1.40;;
12059;SDS011;6091;51.432;6.880;2022-07-12T10:15:17;1.40;;;1.30;;
12059;SDS011;6091;51.432;6.880;2022-07-12T10:17:53;3.13;;;1.48;;
12059;SDS011;6091;51.432;6.880;2022-07-12T10:20:23;3.08;;;1.40;;
12059;SDS011;6091;51.432;6.880;2022-07-12T10:22:55;4.80;;;1.50;;
12059;SDS011;6091;51.432;6.880;2022-07-12T10:25:52;1.75;;;1.50;;
12059;SDS011;6091;51.432;6.880;2022-07-12T10:28:19;1.45;;;1.33;;
12059;SDS011;6091;51.432;6.880;2022-07-12T10:30:47;1.73;;;1.30;;
12059;SDS011;6091;51.432;6.880;2022-07-12T10:33:18;1.58;;;1.20;;
12059;SDS011;6091;51.432;6.880;2022-07-12T10:36:00;1.50;;;1.05;;
12059;SDS011;6091;51.432;6.880;2022-07-12T10:38:41;4.47;;;1.30;;
12059;SDS011;6091;51.432;6.880;2022-07-12T10:41:28;3.08;;;1.25;;
12059;SDS011;6091;51.432;6.880;2022-07-12T10:44:04;1.42;;;1.23;;
12059;SDS011;6091;51.432;6.880;2022-07-12T10:46:31;2.63;;;1.23;;
12059;SDS011;6091;51.432;6.880;2022-07-12T10:54:37;1.27;;;1.15;;
12059;SDS011;6091;51.432;6.880;2022-07-12T10:57:07;1.52;;;1.20;;
12059;SDS011;6091;51.432;6.880;2022-07-12T10:59:35;1.02;;;1.02;;
12059;SDS011;6091;51.432;6.880;2022-07-12T11:02:04;1.27;;;1.17;;
12059;SDS011;6091;51.432;6.880;2022-07-12T11:04:46;1.13;;;1.02;;
12059;SDS011;6091;51.432;6.880;2022-07-12T11:07:17;1.80;;;1.20;;
12059;SDS011;6091;51.432;6.880;2022-07-12T11:26:27;1.25;;;1.00;;
12059;SDS011;6091;51.432;6.880;2022-07-12T11:28:57;2.35;;;1.10;;
12059;SDS011;6091;51.432;6.880;2022-07-12T11:31:25;1.50;;;0.90;;
12059;SDS011;6091;51.432;6.880;2022-07-12T11:33:52;2.33;;;1.13;;
12059;SDS011;6091;51.432;6.880;2022-07-12T11:36:24;1.02;;;1.00;;
12059;SDS011;6091;51.432;6.880;2022-07-12T11:38:53;1.45;;;0.95;;
12059;SDS011;6091;51.432;6.880;2022-07-12T11:53:00;2.22;;;1.20;;
12059;SDS011;6091;51.432;6.880;2022-07-12T11:55:28;1.30;;;1.20;;
12059;SDS011;6091;51.432;6.880;2022-07-12T12:49:49;1.42;;;1.10;;
12059;SDS011;6091;51.432;6.880;2022-07-12T12:52:23;2.28;;;1.60;;
12059;SDS011;6091;51.432;6.880;2022-07-12T12:54:52;2.58;;;1.52;;
12059;SDS011;6091;51.432;6.880;2022-07-12T12:57:20;1.60;;;1.50;;
12059;SDS011;6091;51.432;6.880;2022-07-12T12:59:48;1.35;;;1.25;;
12059;SDS011;6091;51.432;6.880;2022-07-12T13:02:15;1.73;;;1.40;;
12059;SDS011;6091;51.432;6.880;2022-07-12T13:04:43;1.50;;;1.40;;
12059;SDS011;6091;51.432;6.880;2022-07-12T13:07:10;1.30;;;1.20;;
12059;SDS011;6091;51.432;6.880;2022-07-12T13:09:39;2.50;;;1.48;;
12059;SDS011;6091;51.432;6.880;2022-07-12T13:12:07;1.92;;;1.60;;
12059;SDS011;6091;51.432;6.880;2022-07-12T13:14:35;1.58;;;1.48;;
12059;SDS011;6091;51.432;6.880;2022-07-12T13:17:03;2.10;;;1.83;;
12059;SDS011;6091;51.432;6.880;2022-07-12T13:19:31;1.90;;;1.60;;
12059;SDS011;6091;51.432;6.880;2022-07-12T13:21:58;2.10;;;1.90;;
12059;SDS011;6091;51.432;6.880;2022-07-12T13:24:27;2.60;;;1.40;;
12059;SDS011;6091;51.432;6.880;2022-07-12T13:26:54;2.10;;;1.85;;
12059;SDS011;6091;51.432;6.880;2022-07-12T13:29:21;2.88;;;1.60;;
12059;SDS011;6091;51.432;6.880;2022-07-12T13:31:49;2.92;;;1.88;;
12059;SDS011;6091;51.432;6.880;2022-07-12T13:34:21;2.63;;;1.90;;
12059;SDS011;6091;51.432;6.880;2022-07-12T13:36:48;2.20;;;1.70;;
12059;SDS011;6091;51.432;6.880;2022-07-12T13:39:17;1.90;;;1.50;;
12059;SDS011;6091;51.432;6.880;2022-07-12T13:42:02;2.72;;;1.50;;
12059;SDS011;6091;51.432;6.880;2022-07-12T13:44:30;2.25;;;1.65;;
12059;SDS011;6091;51.432;6.880;2022-07-12T13:46:57;2.75;;;1.75;;
12059;SDS011;6091;51.432;6.880;2022-07-12T13:49:24;3.25;;;1.92;;
12059;SDS011;6091;51.432;6.880;2022-07-12T13:51:51;2.65;;;1.80;;
12059;SDS011;6091;51.432;6.880;2022-07-12T13:54:18;1.55;;;1.45;;
12059;SDS011;6091;51.432;6.880;2022-07-12T13:56:48;2.85;;;1.70;;
12059;SDS011;6091;51.432;6.880;2022-07-12T13:59:15;4.32;;;1.80;;
12059;SDS011;6091;51.432;6.880;2022-07-12T14:01:45;3.00;;;1.75;;
12059;SDS011;6091;51.432;6.880;2022-07-12T14:04:12;3.05;;;2.13;;
12059;SDS011;6091;51.432;6.880;2022-07-12T14:06:39;1.80;;;1.70;;
12059;SDS011;6091;51.432;6.880;2022-07-12T14:09:06;1.90;;;1.73;;
12059;SDS011;6091;51.432;6.880;2022-07-12T14:11:33;2.70;;;1.80;;
12059;SDS011;6091;51.432;6.880;2022-07-12T14:14:00;2.65;;;2.00;;
12059;SDS011;6091;51.432;6.880;2022-07-12T14:16:27;3.45;;;2.00;;
12059;SDS011;6091;51.432;6.880;2022-07-12T14:18:54;4.65;;;2.20;;
12059;SDS011;6091;51.432;6.880;2022-07-12T14:21:21;3.33;;;2.25;;
12059;SDS011;6091;51.432;6.880;2022-07-12T14:23:53;3.70;;;1.85;;
12059;SDS011;6091;51.432;6.880;2022-07-12T14:26:20;2.25;;;1.77;;
12059;SDS011;6091;51.432;6.880;2022-07-12T14:28:47;4.88;;;2.10;;
12059;SDS011;6091;51.432;6.880;2022-07-12T14:31:14;4.45;;;2.10;;
12059;SDS011;6091;51.432;6.880;2022-07-12T14:33:42;4.03;;;1.95;;
12059;SDS011;6091;51.432;6.880;2022-07-12T14:36:09;6.20;;;2.08;;
12059;SDS011;6091;51.432;6.880;2022-07-12T14:38:36;3.97;;;2.40;;
12059;SDS011;6091;51.432;6.880;2022-07-12T14:41:04;2.83;;;2.20;;
12059;SDS011;6091;51.432;6.880;2022-07-12T14:43:31;2.40;;;2.20;;
12059;SDS011;6091;51.432;6.880;2022-07-12T14:45:58;2.55;;;2.35;;
12059;SDS011;6091;51.432;6.880;2022-07-12T14:48:25;2.33;;;2.15;;
12059;SDS011;6091;51.432;6.880;2022-07-12T14:50:52;3.25;;;2.40;;
12059;SDS011;6091;51.432;6.880;2022-07-12T14:53:19;2.50;;;2.10;;
12059;SDS011;6091;51.432;6.880;2022-07-12T14:55:46;3.63;;;2.20;;
12059;SDS011;6091;51.432;6.880;2022-07-12T14:58:13;3.00;;;2.42;;
12059;SDS011;6091;51.432;6.880;2022-07-12T15:00:41;3.15;;;2.50;;
12059;SDS011;6091;51.432;6.880;2022-07-12T15:03:08;2.58;;;2.28;;
12059;SDS011;6091;51.432;6.880;2022-07-12T15:05:36;2.50;;;2.30;;
12059;SDS011;6091;51.432;6.880;2022-07-12T15:08:06;2.50;;;2.20;;
12059;SDS011;6091;51.432;6.880;2022-07-12T15:10:33;3.13;;;2.67;;
12059;SDS011;6091;51.432;6.880;2022-07-12T15:13:02;3.42;;;2.28;;
12059;SDS011;6091;51.432;6.880;2022-07-12T15:15:29;3.22;;;2.33;;
12059;SDS011;6091;51.432;6.880;2022-07-12T15:17:56;3.65;;;2.55;;
12059;SDS011;6091;51.432;6.880;2022-07-12T15:20:24;2.90;;;2.38;;
12059;SDS011;6091;51.432;6.880;2022-07-12T15:22:58;4.97;;;2.50;;
12059;SDS011;6091;51.432;6.880;2022-07-12T15:25:26;3.10;;;2.55;;
12059;SDS011;6091;51.432;6.880;2022-07-12T15:27:54;2.50;;;2.28;;
12059;SDS011;6091;51.432;6.880;2022-07-12T15:30:22;3.38;;;2.30;;
12059;SDS011;6091;51.432;6.880;2022-07-12T15:32:49;4.28;;;2.05;;
12059;SDS011;6091;51.432;6.880;2022-07-12T15:35:18;3.05;;;2.40;;
12059;SDS011;6091;51.432;6.880;2022-07-12T15:37:48;3.50;;;2.08;;
12059;SDS011;6091;51.432;6.880;2022-07-12T15:40:15;2.30;;;2.00;;
12059;SDS011;6091;51.432;6.880;2022-07-12T15:42:43;2.83;;;2.10;;
12059;SDS011;6091;51.432;6.880;2022-07-12T15:45:10;2.40;;;2.20;;
12059;SDS011;6091;51.432;6.880;2022-07-12T15:47:38;2.28;;;1.88;;
12059;SDS011;6091;51.432;6.880;2022-07-12T15:50:08;3.30;;;1.92;;
12059;SDS011;6091;51.432;6.880;2022-07-12T15:52:36;2.33;;;2.13;;
12059;SDS011;6091;51.432;6.880;2022-07-12T15:55:24;2.10;;;1.90;;
12059;SDS011;6091;51.432;6.880;2022-07-12T15:57:51;2.20;;;2.00;;
12059;SDS011;6091;51.432;6.880;2022-07-12T16:00:18;2.05;;;1.95;;
12059;SDS011;6091;51.432;6.880;2022-07-12T16:02:45;2.22;;;1.98;;
12059;SDS011;6091;51.432;6.880;2022-07-12T16:05:12;2.22;;;2.13;;
12059;SDS011;6091;51.432;6.880;2022-07-12T16:07:40;2.08;;;1.98;;
12059;SDS011;6091;51.432;6.880;2022-07-12T16:10:10;2.08;;;1.65;;
12059;SDS011;6091;51.432;6.880;2022-07-12T16:12:37;2.20;;;2.00;;
12059;SDS011;6091;51.432;6.880;2022-07-12T16:15:06;2.10;;;1.73;;
12059;SDS011;6091;51.432;6.880;2022-07-12T16:17:34;2.20;;;2.00;;
12059;SDS011;6091;51.432;6.880;2022-07-12T16:20:01;2.00;;;1.88;;
12059;SDS011;6091;51.432;6.880;2022-07-12T16:22:35;3.17;;;1.40;;
12059;SDS011;6091;51.432;6.880;2022-07-12T16:25:03;2.67;;;2.08;;
12059;SDS011;6091;51.432;6.880;2022-07-12T16:27:30;2.15;;;1.70;;
12059;SDS011;6091;51.432;6.880;2022-07-12T16:29:57;1.63;;;1.50;;
12059;SDS011;6091;51.432;6.880;2022-07-12T16:32:24;1.90;;;1.70;;
12059;SDS011;6091;51.432;6.880;2022-07-12T16:34:52;1.92;;;1.77;;